createdAt,value
2022-08-26T00:02:13.575Z,12.37
2022-08-26T00:04:43.717Z,12.20
2022-08-26T00:07:11.810Z,20.03
2022-08-26T00:09:40.350Z,17.50
2022-08-26T00:12:12.443Z,12.07
2022-08-26T00:14:41.250Z,15.20
2022-08-26T00:17:11.035Z,13.83
2022-08-26T00:19:39.470Z,10.93
2022-08-26T00:22:08.456Z,14.00
2022-08-26T00:24:36.653Z,12.57
2022-08-26T00:27:06.390Z,12.13
2022-08-26T00:29:37.606Z,11.53
2022-08-26T00:32:06.808Z,10.40
2022-08-26T00:34:36.753Z,10.37
2022-08-26T00:37:09.414Z,13.13
2022-08-26T00:39:41.111Z,13.20
2022-08-26T00:42:09.339Z,10.77
2022-08-26T00:44:38.872Z,12.43
2022-08-26T00:47:18.393Z,11.37
2022-08-26T00:49:51.444Z,11.57
2022-08-26T00:52:22.851Z,12.83
2022-08-26T00:54:54.759Z,12.63
2022-08-26T00:57:23.894Z,15.67
2022-08-26T00:59:57.708Z,11.87
2022-08-26T01:02:26.313Z,13.60
2022-08-26T01:05:03.261Z,13.63
2022-08-26T01:07:34.847Z,10.30
2022-08-26T01:10:06.347Z,15.57
2022-08-26T01:12:40.225Z,13.53
2022-08-26T01:15:10.792Z,14.83
2022-08-26T01:17:40.505Z,12.93
2022-08-26T01:20:18.883Z,14.30
2022-08-26T01:22:56.356Z,12.13
2022-08-26T01:25:26.400Z,13.90
2022-08-26T01:27:55.188Z,13.23
2022-08-26T01:30:27.012Z,15.27
2022-08-26T01:32:57.057Z,14.00
2022-08-26T01:35:25.307Z,16.97
2022-08-26T01:37:57.454Z,15.23
2022-08-26T01:40:32.578Z,14.73
2022-08-26T01:43:02.479Z,14.07
2022-08-26T01:45:34.168Z,13.43
2022-08-26T01:48:09.051Z,15.00
2022-08-26T01:50:39.136Z,12.97
2022-08-26T01:53:13.797Z,15.30
2022-08-26T01:55:46.412Z,13.20
2022-08-26T01:58:22.208Z,17.10
2022-08-26T02:00:51.847Z,12.20
2022-08-26T02:03:22.192Z,17.93
2022-08-26T02:05:56.077Z,13.80
2022-08-26T02:08:28.926Z,14.80
2022-08-26T02:10:57.121Z,14.17
2022-08-26T02:13:27.959Z,12.40
2022-08-26T02:15:57.047Z,15.27
2022-08-26T02:18:26.360Z,13.53
2022-08-26T02:20:57.031Z,16.60
2022-08-26T02:23:26.521Z,14.27
2022-08-26T02:25:58.847Z,12.93
2022-08-26T02:28:32.734Z,14.03
2022-08-26T02:31:02.516Z,15.07
2022-08-26T02:33:31.271Z,16.57
2022-08-26T02:35:59.336Z,14.43
2022-08-26T02:38:29.441Z,15.90
2022-08-26T02:40:57.752Z,11.83
2022-08-26T02:43:32.700Z,12.90
2022-08-26T02:46:02.431Z,12.80
2022-08-26T02:48:31.527Z,13.00
2022-08-26T02:51:01.721Z,12.70
2022-08-26T02:53:31.996Z,17.70
2022-08-26T02:56:04.142Z,15.00
2022-08-26T02:58:32.431Z,17.90
2022-08-26T03:01:01.501Z,15.00
2022-08-26T03:03:30.154Z,17.23
2022-08-26T03:05:58.671Z,14.47
2022-08-26T03:08:26.811Z,16.93
2022-08-26T03:10:56.720Z,13.87
2022-08-26T03:13:24.762Z,15.33
2022-08-26T03:15:52.952Z,17.50
2022-08-26T03:18:21.062Z,18.97
2022-08-26T03:20:49.273Z,13.10
2022-08-26T03:23:17.254Z,13.10
2022-08-26T03:25:50.648Z,15.67
2022-08-26T03:28:20.480Z,16.77
2022-08-26T03:30:49.102Z,15.60
2022-08-26T03:33:17.212Z,16.57
2022-08-26T03:35:47.367Z,12.93
2022-08-26T03:38:16.155Z,17.53
2022-08-26T03:40:44.861Z,16.07
2022-08-26T03:43:15.994Z,14.90
2022-08-26T03:45:45.958Z,13.30
2022-08-26T03:48:14.088Z,17.70
2022-08-26T03:50:42.932Z,14.50
2022-08-26T03:53:13.079Z,15.40
2022-08-26T03:55:41.653Z,12.77
2022-08-26T03:58:09.654Z,13.63
2022-08-26T04:00:37.677Z,13.57
2022-08-26T04:03:10.018Z,13.43
2022-08-26T04:05:39.189Z,14.53
2022-08-26T04:08:08.147Z,14.30
2022-08-26T04:10:39.124Z,16.27
2022-08-26T04:13:07.521Z,14.13
2022-08-26T04:15:35.640Z,16.23
2022-08-26T04:18:04.454Z,11.90
2022-08-26T04:20:33.821Z,14.07
2022-08-26T04:23:01.899Z,13.50
2022-08-26T04:25:30.487Z,15.73
2022-08-26T04:27:58.349Z,12.57
2022-08-26T04:30:26.438Z,15.63
2022-08-26T04:32:54.461Z,11.70
2022-08-26T04:35:25.680Z,10.30
2022-08-26T04:37:56.057Z,14.57
2022-08-26T04:40:24.748Z,17.27
2022-08-26T04:42:54.074Z,18.40
2022-08-26T04:45:22.620Z,15.20
2022-08-26T04:47:54.670Z,17.90
2022-08-26T04:50:23.591Z,14.83
2022-08-26T04:52:51.703Z,17.97
2022-08-26T04:55:21.043Z,15.40
2022-08-26T04:58:08.811Z,12.70
2022-08-26T05:00:38.673Z,13.40
2022-08-26T05:03:10.170Z,13.50
2022-08-26T05:05:39.940Z,16.57
2022-08-26T05:08:08.038Z,13.67
2022-08-26T05:10:42.267Z,15.20
2022-08-26T05:13:15.103Z,14.20
2022-08-26T05:15:44.651Z,12.40
2022-08-26T05:18:14.071Z,14.57
2022-08-26T05:20:42.909Z,14.00
2022-08-26T05:23:10.877Z,13.73
2022-08-26T05:25:42.110Z,14.47
2022-08-26T05:28:10.421Z,15.37
2022-08-26T05:30:40.190Z,13.80
2022-08-26T05:33:09.862Z,16.40
2022-08-26T05:35:39.094Z,15.50
2022-08-26T05:38:12.594Z,15.17
2022-08-26T05:40:44.503Z,16.40
2022-08-26T05:43:13.484Z,17.93
2022-08-26T05:45:46.097Z,16.00
2022-08-26T05:48:16.128Z,15.10
2022-08-26T05:50:46.220Z,16.07
2022-08-26T05:53:16.396Z,15.47
2022-08-26T05:55:50.523Z,15.40
2022-08-26T05:58:21.135Z,16.13
2022-08-26T06:00:58.975Z,16.23
2022-08-26T06:03:28.064Z,12.33
2022-08-26T06:05:56.869Z,16.37
2022-08-26T06:08:25.695Z,17.50
2022-08-26T06:11:00.777Z,14.70
2022-08-26T06:13:32.068Z,15.50
2022-08-26T06:16:03.411Z,12.93
2022-08-26T06:18:35.505Z,17.40
2022-08-26T06:21:14.484Z,17.80
2022-08-26T06:24:00.941Z,14.83
2022-08-26T06:26:31.025Z,12.90
2022-08-26T06:28:59.458Z,18.40
2022-08-26T06:31:30.252Z,12.27
2022-08-26T06:33:59.514Z,15.93
2022-08-26T06:36:31.009Z,22.27
2022-08-26T06:39:02.624Z,13.80
2022-08-26T06:41:33.561Z,15.73
2022-08-26T06:44:01.898Z,13.10
2022-08-26T06:46:31.076Z,12.53
2022-08-26T06:48:59.368Z,11.83
2022-08-26T06:51:29.486Z,13.30
2022-08-26T06:54:00.273Z,11.27
2022-08-26T06:56:30.676Z,10.30
2022-08-26T06:59:00.080Z,10.97
2022-08-26T07:01:31.380Z,15.47
2022-08-26T07:04:04.171Z,13.07
2022-08-26T07:06:39.036Z,12.50
2022-08-26T07:09:14.371Z,9.30
2022-08-26T07:11:43.038Z,9.57
2022-08-26T07:14:13.001Z,11.13
2022-08-26T07:16:41.839Z,12.40
2022-08-26T07:19:12.531Z,9.03
2022-08-26T07:21:42.517Z,8.73
2022-08-26T07:24:11.369Z,10.53
2022-08-26T07:26:42.875Z,14.00
2022-08-26T07:29:12.840Z,8.10
2022-08-26T07:31:42.836Z,8.70
2022-08-26T07:34:11.857Z,11.93
2022-08-26T07:36:40.314Z,8.53
2022-08-26T07:39:09.129Z,9.40
2022-08-26T07:41:40.530Z,8.33
2022-08-26T07:44:08.866Z,9.00
2022-08-26T07:46:41.663Z,7.13
2022-08-26T07:49:13.173Z,7.00
2022-08-26T07:51:41.455Z,8.93
2022-08-26T07:54:09.520Z,6.77
2022-08-26T07:56:41.289Z,8.27
2022-08-26T07:59:15.216Z,7.30
2022-08-26T08:01:45.628Z,7.00
2022-08-26T08:04:14.871Z,8.60
2022-08-26T08:06:43.843Z,8.90
2022-08-26T08:09:13.337Z,6.93
2022-08-26T08:11:41.994Z,7.90
2022-08-26T08:14:11.981Z,9.33
2022-08-26T08:16:45.775Z,7.20
2022-08-26T08:19:15.777Z,10.23
2022-08-26T08:21:44.548Z,7.73
2022-08-26T08:24:12.971Z,7.67
2022-08-26T08:26:41.484Z,9.20
2022-08-26T08:29:09.823Z,8.10
2022-08-26T08:31:57.074Z,8.33
2022-08-26T08:34:29.989Z,8.40
2022-08-26T08:36:58.717Z,8.13
2022-08-26T08:39:28.260Z,10.30
2022-08-26T08:42:19.693Z,8.77
2022-08-26T08:44:54.081Z,10.43
2022-08-26T08:47:29.267Z,9.03
2022-08-26T08:50:04.882Z,7.60
2022-08-26T08:52:36.273Z,7.80
2022-08-26T08:55:10.983Z,10.10
2022-08-26T08:57:55.347Z,7.93
2022-08-26T09:00:40.082Z,17.10
2022-08-26T09:03:14.275Z,7.70
2022-08-26T09:05:48.797Z,13.50
2022-08-26T09:08:22.733Z,10.23
2022-08-26T09:10:54.628Z,8.70
2022-08-26T09:13:26.133Z,9.63
2022-08-26T09:16:04.150Z,9.50
2022-08-26T09:19:00.853Z,9.20
2022-08-26T09:21:31.424Z,9.13
2022-08-26T09:24:00.880Z,7.30
2022-08-26T09:26:31.096Z,9.00
2022-08-26T09:29:01.438Z,9.17
2022-08-26T09:31:31.636Z,7.40
2022-08-26T09:34:17.084Z,8.43
2022-08-26T09:36:51.578Z,6.77
2022-08-26T09:39:34.126Z,7.90
2022-08-26T09:42:09.610Z,5.83
2022-08-26T09:44:57.426Z,7.00
2022-08-26T09:47:30.571Z,5.70
2022-08-26T09:50:04.671Z,6.13
2022-08-26T09:52:40.557Z,11.67
2022-08-26T09:55:16.158Z,11.43
2022-08-26T09:57:52.851Z,6.47
2022-08-26T10:00:33.553Z,5.43
2022-08-26T10:03:04.960Z,10.83
2022-08-26T10:05:42.451Z,6.57
2022-08-26T10:08:23.956Z,5.13
2022-08-26T10:10:57.501Z,8.67
2022-08-26T10:13:35.135Z,6.47
2022-08-26T10:16:14.970Z,9.20
2022-08-26T10:18:51.555Z,5.83
2022-08-26T10:21:27.732Z,11.20
2022-08-26T10:24:01.354Z,5.20
2022-08-26T10:26:41.044Z,4.97
2022-08-26T10:29:17.561Z,4.50
2022-08-26T10:31:52.322Z,5.93
2022-08-26T10:34:21.858Z,7.53
2022-08-26T10:37:13.676Z,5.73
2022-08-26T10:40:10.230Z,5.20
2022-08-26T10:42:43.055Z,4.60
2022-08-26T10:45:18.231Z,5.77
2022-08-26T10:47:59.178Z,10.33
2022-08-26T10:50:34.380Z,5.03
2022-08-26T10:53:09.046Z,5.60
2022-08-26T10:55:45.194Z,4.00
2022-08-26T10:58:31.494Z,4.80
2022-08-26T11:01:27.122Z,7.00
2022-08-26T11:04:04.207Z,3.23
2022-08-26T11:06:33.046Z,6.00
2022-08-26T11:09:11.239Z,4.87
2022-08-26T11:11:50.070Z,6.17
2022-08-26T11:14:42.043Z,4.87
2022-08-26T11:17:58.325Z,5.47
2022-08-26T11:20:41.834Z,6.60
2022-08-26T11:23:50.420Z,4.90
2022-08-26T11:26:35.383Z,4.53
2022-08-26T11:29:35.083Z,4.13
2022-08-26T11:32:06.368Z,5.60
2022-08-26T11:38:29.230Z,6.77
2022-08-26T11:41:25.906Z,6.77
2022-08-26T11:43:54.950Z,6.70
2022-08-26T11:46:27.508Z,9.13
2022-08-26T11:49:02.637Z,8.37
2022-08-26T11:51:35.898Z,5.73
2022-08-26T11:54:14.078Z,8.03
2022-08-26T11:56:46.650Z,4.03
2022-08-26T11:59:19.956Z,10.10
2022-08-26T12:01:53.251Z,5.10
2022-08-26T12:04:28.706Z,6.10
2022-08-26T12:06:58.514Z,9.63
2022-08-26T12:09:31.333Z,6.37
2022-08-26T12:12:14.253Z,5.40
2022-08-26T12:18:57.920Z,5.13
2022-08-26T12:21:44.999Z,4.47
2022-08-26T12:24:26.311Z,5.63
2022-08-26T12:28:10.347Z,8.13
2022-08-26T12:30:36.258Z,7.73
2022-08-26T12:33:22.557Z,5.87
2022-08-26T12:35:56.316Z,4.57
2022-08-26T12:38:27.012Z,6.60
2022-08-26T12:40:56.902Z,6.50
2022-08-26T12:43:43.790Z,5.10
2022-08-26T12:46:15.352Z,5.70
2022-08-26T12:48:48.832Z,5.70
2022-08-26T12:51:25.354Z,4.60
2022-08-26T12:53:54.577Z,5.30
2022-08-26T12:56:30.342Z,4.90
2022-08-26T12:59:06.454Z,5.43
2022-08-26T13:01:41.099Z,6.07
2022-08-26T13:04:39.735Z,4.00
2022-08-26T13:07:15.689Z,9.53
2022-08-26T13:09:43.953Z,6.97
2022-08-26T13:12:12.965Z,5.00
2022-08-26T13:14:44.225Z,4.73
2022-08-26T13:17:12.514Z,5.20
2022-08-26T13:23:16.389Z,3.40
2022-08-26T13:29:40.663Z,7.77
2022-08-26T13:32:28.305Z,3.80
2022-08-26T13:35:27.862Z,5.70
2022-08-26T13:38:33.295Z,4.50
2022-08-26T13:46:59.675Z,5.93
2022-08-26T13:49:32.229Z,3.63
2022-08-26T13:52:05.283Z,6.20
2022-08-26T13:55:28.862Z,6.90
2022-08-26T13:57:57.425Z,8.00
2022-08-26T14:00:25.611Z,3.50
2022-08-26T14:02:53.854Z,4.23
2022-08-26T14:05:23.182Z,4.40
2022-08-26T14:07:51.221Z,4.17
2022-08-26T14:10:19.525Z,4.80
2022-08-26T14:12:50.034Z,4.53
2022-08-26T14:15:18.970Z,3.17
2022-08-26T14:17:49.545Z,3.57
2022-08-26T14:20:22.441Z,3.90
2022-08-26T14:23:12.718Z,4.90
2022-08-26T14:25:40.367Z,5.00
2022-08-26T14:28:08.322Z,3.80
2022-08-26T14:30:38.143Z,5.27
2022-08-26T14:33:06.326Z,3.60
2022-08-26T14:35:34.398Z,5.60
2022-08-26T14:38:03.971Z,6.80
2022-08-26T14:40:33.989Z,4.00
2022-08-26T14:43:07.579Z,3.70
2022-08-26T14:45:38.094Z,3.13
2022-08-26T14:48:06.249Z,4.27
2022-08-26T14:50:34.507Z,4.03
2022-08-26T14:53:23.806Z,4.37
2022-08-26T14:55:51.948Z,4.73
2022-08-26T14:58:20.121Z,2.90
2022-08-26T15:00:48.227Z,4.53
2022-08-26T15:05:49.462Z,6.40
2022-08-26T15:08:20.734Z,3.40
2022-08-26T15:10:48.940Z,7.90
2022-08-26T15:13:16.958Z,5.10
2022-08-26T15:15:45.352Z,4.90
2022-08-26T15:18:13.465Z,4.80
2022-08-26T15:20:41.338Z,4.80
2022-08-26T15:23:11.005Z,5.40
2022-08-26T15:25:40.956Z,4.73
2022-08-26T15:28:08.980Z,9.60
2022-08-26T15:30:37.093Z,6.10
2022-08-26T15:33:05.410Z,5.87
2022-08-26T15:35:43.215Z,5.57
2022-08-26T15:38:11.436Z,4.83
2022-08-26T15:40:41.158Z,4.93
2022-08-26T15:43:25.478Z,4.23
2022-08-26T15:45:56.899Z,3.70
2022-08-26T15:48:25.509Z,5.47
2022-08-26T15:50:55.242Z,5.13
2022-08-26T15:53:24.705Z,6.80
2022-08-26T15:55:56.319Z,6.60
2022-08-26T15:58:26.941Z,6.70
2022-08-26T16:00:56.072Z,7.77
2022-08-26T16:03:24.456Z,5.30
2022-08-26T16:05:52.876Z,5.13
2022-08-26T16:08:22.241Z,7.90
2022-08-26T16:10:51.822Z,6.57
2022-08-26T16:13:21.908Z,6.17
2022-08-26T16:15:49.935Z,4.77
2022-08-26T16:18:20.368Z,10.10
2022-08-26T16:21:12.787Z,7.07
2022-08-26T16:23:45.017Z,7.40
2022-08-26T16:26:16.348Z,7.27
2022-08-26T16:28:46.228Z,6.77
2022-08-26T16:31:14.927Z,5.97
2022-08-26T16:33:42.996Z,5.67
2022-08-26T16:36:11.720Z,10.70
2022-08-26T16:38:40.636Z,5.80
2022-08-26T16:41:09.264Z,7.53
2022-08-26T16:43:37.533Z,9.70
2022-08-26T16:46:08.365Z,9.10
2022-08-26T16:48:36.605Z,7.07
2022-08-26T16:51:04.980Z,7.60
2022-08-26T16:53:33.700Z,5.40
2022-08-26T16:56:01.730Z,7.77
2022-08-26T16:58:30.256Z,5.83
2022-08-26T17:00:58.559Z,9.00
2022-08-26T17:03:28.065Z,9.03
2022-08-26T17:05:56.007Z,10.30
2022-08-26T17:08:28.416Z,6.70
2022-08-26T17:10:57.188Z,5.10
2022-08-26T17:13:34.834Z,5.57
2022-08-26T17:16:05.345Z,9.20
2022-08-26T17:18:35.774Z,8.10
2022-08-26T17:21:06.909Z,7.37
2022-08-26T17:23:35.263Z,6.93
2022-08-26T17:26:03.453Z,5.90
2022-08-26T17:28:32.115Z,8.67
2022-08-26T17:31:00.319Z,11.97
2022-08-26T17:33:29.672Z,7.80
2022-08-26T17:36:00.026Z,6.37
2022-08-26T17:38:29.083Z,7.07
2022-08-26T17:40:57.393Z,5.97
2022-08-26T17:43:26.811Z,6.83
2022-08-26T17:46:04.501Z,8.17
2022-08-26T17:48:35.812Z,7.03
2022-08-26T17:51:09.455Z,8.43
2022-08-26T17:53:38.240Z,8.80
2022-08-26T17:56:10.379Z,8.17
2022-08-26T17:58:39.005Z,7.57
2022-08-26T18:01:07.841Z,7.50
2022-08-26T18:03:36.556Z,7.67
2022-08-26T18:06:11.160Z,6.30
2022-08-26T18:08:40.182Z,8.23
2022-08-26T18:11:12.134Z,8.33
2022-08-26T18:13:47.164Z,7.20
2022-08-26T18:16:16.238Z,9.57
2022-08-26T18:18:44.716Z,5.77
2022-08-26T18:21:16.057Z,8.93
2022-08-26T18:23:44.907Z,7.17
2022-08-26T18:26:17.871Z,7.03
2022-08-26T18:28:46.266Z,12.77
2022-08-26T18:31:15.217Z,7.30
2022-08-26T18:33:44.042Z,10.43
2022-08-26T18:36:18.600Z,12.37
2022-08-26T18:38:46.929Z,8.20
2022-08-26T18:41:15.457Z,9.83
2022-08-26T18:43:43.783Z,7.67
2022-08-26T18:46:12.437Z,9.20
2022-08-26T18:48:41.354Z,5.40
2022-08-26T18:51:12.514Z,7.63
2022-08-26T18:53:42.535Z,5.67
2022-08-26T18:56:11.676Z,6.53
2022-08-26T18:58:40.695Z,6.50
2022-08-26T19:01:08.948Z,6.07
2022-08-26T19:03:37.462Z,4.30
2022-08-26T19:06:05.740Z,5.00
2022-08-26T19:08:33.893Z,6.73
2022-08-26T19:11:03.752Z,6.27
2022-08-26T19:13:31.743Z,5.97
2022-08-26T19:15:59.716Z,8.00
2022-08-26T19:18:27.818Z,8.80
2022-08-26T19:20:55.856Z,5.73
2022-08-26T19:23:32.687Z,7.13
2022-08-26T19:26:05.651Z,3.77
2022-08-26T19:28:34.150Z,6.67
2022-08-26T19:31:02.979Z,6.13
2022-08-26T19:33:31.157Z,7.43
2022-08-26T19:35:59.246Z,6.00
2022-08-26T19:38:27.823Z,5.70
2022-08-26T19:40:55.880Z,5.20
2022-08-26T19:43:25.765Z,5.77
2022-08-26T19:45:53.983Z,6.03
2022-08-26T19:48:22.145Z,6.20
2022-08-26T19:50:50.217Z,4.83
2022-08-26T19:53:19.769Z,5.50
2022-08-26T19:55:48.376Z,5.23
2022-08-26T19:58:16.479Z,6.53
2022-08-26T20:00:46.107Z,7.00
2022-08-26T20:03:15.898Z,13.17
2022-08-26T20:05:44.380Z,6.27
2022-08-26T20:08:22.176Z,10.53
2022-08-26T20:10:51.184Z,7.83
2022-08-26T20:13:19.659Z,6.27
2022-08-26T20:15:49.145Z,8.97
2022-08-26T20:18:34.532Z,8.70
2022-08-26T20:21:19.997Z,23.63
2022-08-26T20:23:48.312Z,14.13
2022-08-26T20:26:16.676Z,11.93
2022-08-26T20:28:44.642Z,16.50
2022-08-26T20:31:13.997Z,10.77
2022-08-26T20:33:46.344Z,6.97
2022-08-26T20:36:15.354Z,12.73
2022-08-26T20:38:43.860Z,8.23
2022-08-26T20:41:11.877Z,7.23
2022-08-26T20:43:39.930Z,8.27
2022-08-26T20:46:08.308Z,11.97
2022-08-26T20:48:43.414Z,10.00
2022-08-26T20:51:11.723Z,8.60
2022-08-26T20:53:39.873Z,7.97
2022-08-26T20:56:10.645Z,8.80
2022-08-26T20:58:39.948Z,6.00
2022-08-26T21:01:09.265Z,7.37
2022-08-26T21:03:37.916Z,7.57
2022-08-26T21:06:08.233Z,4.97
2022-08-26T21:08:39.731Z,9.37
2022-08-26T21:11:10.972Z,8.47
2022-08-26T21:14:03.497Z,8.50
2022-08-26T21:16:28.461Z,7.33
2022-08-26T21:18:56.644Z,8.77
2022-08-26T21:21:29.798Z,10.03
2022-08-26T21:23:58.003Z,7.60
2022-08-26T21:26:26.185Z,7.80
2022-08-26T21:28:54.818Z,9.20
2022-08-26T21:31:25.299Z,8.07
2022-08-26T21:33:54.069Z,8.13
2022-08-26T21:36:22.148Z,9.37
2022-08-26T21:38:51.493Z,8.57
2022-08-26T21:41:21.946Z,8.37
2022-08-26T21:43:51.598Z,6.70
2022-08-26T21:46:22.067Z,7.83
2022-08-26T21:48:52.419Z,9.10
2022-08-26T21:51:22.744Z,8.00
2022-08-26T21:53:53.344Z,7.30
2022-08-26T21:56:22.644Z,7.07
2022-08-26T21:58:52.405Z,8.80
2022-08-26T22:01:24.143Z,7.13
2022-08-26T22:03:53.412Z,9.07
2022-08-26T22:06:23.892Z,8.33
2022-08-26T22:08:54.347Z,7.40
2022-08-26T22:11:22.417Z,8.00
2022-08-26T22:13:52.232Z,8.03
2022-08-26T22:16:20.625Z,8.17
2022-08-26T22:18:48.599Z,9.03
2022-08-26T22:21:18.957Z,9.80
2022-08-26T22:23:48.067Z,8.60
2022-08-26T22:26:25.683Z,11.30
2022-08-26T22:28:55.654Z,14.27
2022-08-26T22:31:37.329Z,12.07
2022-08-26T22:34:07.502Z,13.97
2022-08-26T22:36:36.156Z,10.70
2022-08-26T22:39:11.023Z,8.97
2022-08-26T22:41:40.443Z,13.53
2022-08-26T22:44:08.532Z,10.73
2022-08-26T22:46:38.552Z,14.70
2022-08-26T22:49:08.719Z,8.93
2022-08-26T22:51:36.686Z,12.43
2022-08-26T22:54:04.888Z,10.00
2022-08-26T22:56:33.104Z,10.57
2022-08-26T22:59:02.545Z,12.57
2022-08-26T23:01:30.639Z,13.77
2022-08-26T23:03:58.733Z,12.53
2022-08-26T23:06:26.889Z,8.83
2022-08-26T23:08:54.919Z,10.57
2022-08-26T23:11:23.027Z,11.43
2022-08-26T23:13:51.105Z,8.70
2022-08-26T23:16:21.082Z,9.40
2022-08-26T23:18:49.878Z,11.37
2022-08-26T23:21:18.034Z,11.80
2022-08-26T23:23:46.075Z,11.73
2022-08-26T23:26:17.548Z,10.37
2022-08-26T23:28:45.918Z,11.67
2022-08-26T23:31:14.876Z,9.40
2022-08-26T23:34:01.594Z,11.57
2022-08-26T23:36:31.091Z,11.87
2022-08-26T23:39:03.432Z,15.03
2022-08-26T23:41:32.004Z,9.47
2022-08-26T23:44:03.391Z,9.00
2022-08-26T23:46:32.009Z,11.17
2022-08-26T23:49:01.997Z,12.67
2022-08-26T23:51:47.631Z,8.07
2022-08-26T23:54:16.884Z,10.50
2022-08-26T23:56:44.924Z,7.70
2022-08-26T23:59:13.159Z,7.87
